Nibulon 1 — UUAS4 — position and weather

sailwx.info

Track history (hours):
 
Tides and Currents Weather Stations Pressure Air Temp Water Temp Dewpoint Dewpoint Depression Visibility Wind Speed Wind Dir Waves Ship Positions

Nibulon 1

Last reported at 2015-Sep-01 19:32 UTC. Time now 2015-Sep-01 20:21 UTC.
Position N 46°57' E 031°59'.

Length 38 m; draft 2.6 m.

Type: Tug. MMSI: 272641000.

Date/timePositionNaut miles runAvg speedWind from/ knotsBaromVisibWave heightAir tempDewpointWater temp
2015-Sep-01 19:32N 46°57' E 031°59'0 0.0
2015-Sep-01 11:23N 46°57' E 031°59'0 0.0
2015-Sep-01 10:17N 46°57' E 031°59'0 0.0
2015-Sep-01 09:32N 46°57' E 031°59'0 0.0
2015-Sep-01 08:32N 46°57' E 031°59'0 0.0
2015-Sep-01 07:32N 46°57' E 031°59'0 0.0
2015-Sep-01 06:32N 46°57' E 031°59'0 0.0
2015-Sep-01 05:32N 46°57' E 031°59'0 0.0
2015-Sep-01 04:32N 46°57' E 031°59'0 0.0
2015-Sep-01 03:32N 46°57' E 031°59'0 0.0
2015-Sep-01 02:32N 46°57' E 031°59'0 0.1
2015-Sep-01 01:32N 46°57' E 031°59'0 0.2
2015-Sep-01 00:33N 46°57' E 031°59'0 0.2
2015-Aug-31 23:31N 46°57' E 031°59'0 0.0
2015-Aug-31 22:31N 46°57' E 031°59'0 0.0
2015-Aug-31 21:31N 46°57' E 031°59'0 0.0
2015-Aug-31 20:31N 46°57' E 031°59'0 0.1
2015-Aug-31 19:33N 46°57' E 031°59'0 0.1
2015-Aug-31 18:31N 46°57' E 031°59'0 0.2
2015-Aug-31 17:31N 46°57' E 031°59'0 0.0
2015-Aug-31 16:31N 46°57' E 031°59'0 0.0
2015-Aug-31 15:31N 46°57' E 031°59'0 0.0
2015-Aug-31 14:33N 46°57' E 031°59'0 0.0
2015-Aug-31 13:33N 46°57' E 031°59'0 0.0
2015-Aug-31 12:33N 46°57' E 031°59'0 0.0
2015-Aug-31 11:33N 46°57' E 031°59'0 0.0
2015-Aug-31 10:33N 46°57' E 031°59'0 0.0
2015-Aug-31 09:33N 46°57' E 031°59'0 0.0
2015-Aug-31 08:33N 46°57' E 031°59'3 3.2
2015-Aug-31 07:33N 46°53' E 032°00'6 5.9
2015-Aug-31 06:33N 46°49' E 031°54'5 4.9
2015-Aug-31 05:33N 46°44' E 031°55'6 5.5
2015-Aug-31 04:33N 46°39' E 031°55'6 5.7
2015-Aug-31 03:34N 46°36' E 031°48'6 5.6
2015-Aug-31 02:33N 46°35' E 031°40'5 5.4
2015-Aug-31 01:33N 46°35' E 031°32'2 1.6
2015-Aug-31 00:22N 46°36' E 031°31'0 0.5
2015-Aug-30 23:33N 46°36' E 031°31'0 0.1
2015-Aug-30 20:20N 46°36' E 031°31'0 0.0
2015-Aug-30 19:26N 46°36' E 031°31'1 0.2
2015-Aug-30 16:31N 46°36' E 031°31'10 1.4
2015-Aug-30 09:33N 46°36' E 031°45'4 3.8
2015-Aug-30 08:29N 46°35' E 031°51'3 3.7
2015-Aug-30 07:33N 46°34' E 031°56'4 3.7
2015-Aug-30 06:33N 46°33' E 032°01'4 3.7
2015-Aug-30 05:31N 46°32' E 032°06'4 3.9
2015-Aug-30 04:31N 46°33' E 032°11'4 3.9
2015-Aug-30 03:29N 46°33' E 032°17'  
2015-Aug-26 21:09N 46°46' E 033°05'41 5.2
2015-Aug-26 13:17N 46°32' E 032°08'4 5.6
2015-Aug-26 12:33N 46°32' E 032°02'6 5.7
2015-Aug-26 11:33N 46°34' E 031°55'6 5.6
2015-Aug-26 10:33N 46°35' E 031°47'9 2.0
2015-Aug-26 06:04N 46°37' E 031°34'0 0.0
2015-Aug-26 05:29N 46°37' E 031°34'1 1.2
2015-Aug-26 04:33N 46°36' E 031°34'2 2.0
2015-Aug-26 03:30N 46°36' E 031°31'4 4.2
2015-Aug-26 02:33N 46°35' E 031°26'5 4.6
2015-Aug-26 01:33N 46°35' E 031°19'3 3.1
2015-Aug-26 00:33N 46°34' E 031°15'0 0.0
2015-Aug-25 23:30N 46°34' E 031°15'0 0.0
2015-Aug-25 22:33N 46°34' E 031°15'0 0.0
2015-Aug-25 21:27N 46°34' E 031°15'0 0.0
2015-Aug-25 20:33N 46°34' E 031°15'0 0.1
2015-Aug-25 19:33N 46°34' E 031°15'0 0.0
2015-Aug-25 18:32N 46°34' E 031°15'0 0.0
2015-Aug-25 17:32N 46°34' E 031°15'0 0.0
2015-Aug-25 16:32N 46°34' E 031°15'0 0.1
2015-Aug-25 15:27N 46°34' E 031°15'1 0.1
2015-Aug-25 05:04N 46°35' E 031°14'1 0.0
2015-Aug-23 16:13N 46°34' E 031°14'14 1.6
2015-Aug-23 07:28N 46°35' E 031°35'5 3.6
2015-Aug-23 06:11N 46°35' E 031°41'2 3.6
2015-Aug-23 05:33N 46°36' E 031°45'4 3.7
2015-Aug-23 04:33N 46°35' E 031°50'4 3.6
2015-Aug-23 03:33N 46°34' E 031°55'4 3.5
2015-Aug-23 02:33N 46°33' E 031°60'4 3.5
2015-Aug-23 01:30N 46°32' E 032°05'4 3.9
2015-Aug-23 00:33N 46°32' E 032°10'4 3.7
2015-Aug-22 23:33N 46°33' E 032°16'  
Track history (hours):
 
Tides and Currents Weather Stations Pressure Air Temp Water Temp Dewpoint Dewpoint Depression Visibility Wind Speed Wind Dir Waves Ship Positions

Nibulon 1

Last reported at 2015-Sep-01 19:32 UTC. Time now 2015-Sep-01 20:21 UTC.
Position N 46°57' E 031°59'.

Length 38 m; draft 2.6 m.

Type: Tug. MMSI: 272641000.

Date/timePositionNaut miles runAvg speedWind from/ knotsBaromVisibWave heightAir tempDewpointWater temp
2015-Sep-01 19:32N 46°57' E 031°59'0 0.0
2015-Sep-01 11:23N 46°57' E 031°59'0 0.0
2015-Sep-01 10:17N 46°57' E 031°59'0 0.0
2015-Sep-01 09:32N 46°57' E 031°59'0 0.0
2015-Sep-01 08:32N 46°57' E 031°59'0 0.0
2015-Sep-01 07:32N 46°57' E 031°59'0 0.0
2015-Sep-01 06:32N 46°57' E 031°59'0 0.0
2015-Sep-01 05:32N 46°57' E 031°59'0 0.0
2015-Sep-01 04:32N 46°57' E 031°59'0 0.0
2015-Sep-01 03:32N 46°57' E 031°59'0 0.0
2015-Sep-01 02:32N 46°57' E 031°59'0 0.1
2015-Sep-01 01:32N 46°57' E 031°59'0 0.2
2015-Sep-01 00:33N 46°57' E 031°59'0 0.2
2015-Aug-31 23:31N 46°57' E 031°59'0 0.0
2015-Aug-31 22:31N 46°57' E 031°59'0 0.0
2015-Aug-31 21:31N 46°57' E 031°59'0 0.0
2015-Aug-31 20:31N 46°57' E 031°59'0 0.1
2015-Aug-31 19:33N 46°57' E 031°59'0 0.1
2015-Aug-31 18:31N 46°57' E 031°59'0 0.2
2015-Aug-31 17:31N 46°57' E 031°59'0 0.0
2015-Aug-31 16:31N 46°57' E 031°59'0 0.0
2015-Aug-31 15:31N 46°57' E 031°59'0 0.0
2015-Aug-31 14:33N 46°57' E 031°59'0 0.0
2015-Aug-31 13:33N 46°57' E 031°59'0 0.0
2015-Aug-31 12:33N 46°57' E 031°59'0 0.0
2015-Aug-31 11:33N 46°57' E 031°59'0 0.0
2015-Aug-31 10:33N 46°57' E 031°59'0 0.0
2015-Aug-31 09:33N 46°57' E 031°59'0 0.0
2015-Aug-31 08:33N 46°57' E 031°59'3 3.2
2015-Aug-31 07:33N 46°53' E 032°00'6 5.9
2015-Aug-31 06:33N 46°49' E 031°54'5 4.9
2015-Aug-31 05:33N 46°44' E 031°55'6 5.5
2015-Aug-31 04:33N 46°39' E 031°55'6 5.7
2015-Aug-31 03:34N 46°36' E 031°48'6 5.6
2015-Aug-31 02:33N 46°35' E 031°40'5 5.4
2015-Aug-31 01:33N 46°35' E 031°32'2 1.6
2015-Aug-31 00:22N 46°36' E 031°31'0 0.5
2015-Aug-30 23:33N 46°36' E 031°31'0 0.1
2015-Aug-30 20:20N 46°36' E 031°31'0 0.0
2015-Aug-30 19:26N 46°36' E 031°31'1 0.2
2015-Aug-30 16:31N 46°36' E 031°31'10 1.4
2015-Aug-30 09:33N 46°36' E 031°45'4 3.8
2015-Aug-30 08:29N 46°35' E 031°51'3 3.7
2015-Aug-30 07:33N 46°34' E 031°56'4 3.7
2015-Aug-30 06:33N 46°33' E 032°01'4 3.7
2015-Aug-30 05:31N 46°32' E 032°06'4 3.9
2015-Aug-30 04:31N 46°33' E 032°11'4 3.9
2015-Aug-30 03:29N 46°33' E 032°17'  
2015-Aug-26 21:09N 46°46' E 033°05'41 5.2
2015-Aug-26 13:17N 46°32' E 032°08'4 5.6
2015-Aug-26 12:33N 46°32' E 032°02'6 5.7
2015-Aug-26 11:33N 46°34' E 031°55'6 5.6
2015-Aug-26 10:33N 46°35' E 031°47'9 2.0
2015-Aug-26 06:04N 46°37' E 031°34'0 0.0
2015-Aug-26 05:29N 46°37' E 031°34'1 1.2
2015-Aug-26 04:33N 46°36' E 031°34'2 2.0
2015-Aug-26 03:30N 46°36' E 031°31'4 4.2
2015-Aug-26 02:33N 46°35' E 031°26'5 4.6
2015-Aug-26 01:33N 46°35' E 031°19'3 3.1
2015-Aug-26 00:33N 46°34' E 031°15'0 0.0
2015-Aug-25 23:30N 46°34' E 031°15'0 0.0
2015-Aug-25 22:33N 46°34' E 031°15'0 0.0
2015-Aug-25 21:27N 46°34' E 031°15'0 0.0
2015-Aug-25 20:33N 46°34' E 031°15'0 0.1
2015-Aug-25 19:33N 46°34' E 031°15'0 0.0
2015-Aug-25 18:32N 46°34' E 031°15'0 0.0
2015-Aug-25 17:32N 46°34' E 031°15'0 0.0
2015-Aug-25 16:32N 46°34' E 031°15'0 0.1
2015-Aug-25 15:27N 46°34' E 031°15'1 0.1
2015-Aug-25 05:04N 46°35' E 031°14'1 0.0
2015-Aug-23 16:13N 46°34' E 031°14'14 1.6
2015-Aug-23 07:28N 46°35' E 031°35'5 3.6
2015-Aug-23 06:11N 46°35' E 031°41'2 3.6
2015-Aug-23 05:33N 46°36' E 031°45'4 3.7
2015-Aug-23 04:33N 46°35' E 031°50'4 3.6
2015-Aug-23 03:33N 46°34' E 031°55'4 3.5
2015-Aug-23 02:33N 46°33' E 031°60'4 3.5
2015-Aug-23 01:30N 46°32' E 032°05'4 3.9
2015-Aug-23 00:33N 46°32' E 032°10'4 3.7
2015-Aug-22 23:33N 46°33' E 032°16'  

Dump ship's entire track history